sensor_id;sensor_type;location;lat;lon;timestamp;pressure;altitude;pressure_sealevel;temperature
69785;BMP280;14177;51.520;6.764;2022-11-04T00:00:14;99937.19;;;12.19
69785;BMP280;14177;51.520;6.764;2022-11-04T00:02:41;99941.38;;;12.21
69785;BMP280;14177;51.520;6.764;2022-11-04T00:05:08;99950.22;;;12.19
69785;BMP280;14177;51.520;6.764;2022-11-04T00:07:37;99961.25;;;12.24
69785;BMP280;14177;51.520;6.764;2022-11-04T00:10:23;99952.56;;;12.23
69785;BMP280;14177;51.520;6.764;2022-11-04T00:13:12;99954.50;;;12.20
69785;BMP280;14177;51.520;6.764;2022-11-04T00:15:38;99961.69;;;12.15
69785;BMP280;14177;51.520;6.764;2022-11-04T00:18:24;99964.28;;;12.15
69785;BMP280;14177;51.520;6.764;2022-11-04T00:20:52;99963.06;;;12.05
69785;BMP280;14177;51.520;6.764;2022-11-04T00:23:37;99981.59;;;11.99
69785;BMP280;14177;51.520;6.764;2022-11-04T00:26:23;99972.09;;;11.98
69785;BMP280;14177;51.520;6.764;2022-11-04T00:29:09;99981.06;;;11.93
69785;BMP280;14177;51.520;6.764;2022-11-04T00:31:39;99982.78;;;11.92
69785;BMP280;14177;51.520;6.764;2022-11-04T00:34:27;99978.50;;;11.91
69785;BMP280;14177;51.520;6.764;2022-11-04T00:37:09;99985.09;;;11.98
69785;BMP280;14177;51.520;6.764;2022-11-04T00:39:50;99981.59;;;11.99
69785;BMP280;14177;51.520;6.764;2022-11-04T00:42:18;99988.47;;;12.00
69785;BMP280;14177;51.520;6.764;2022-11-04T00:44:59;100007.59;;;11.99
69785;BMP280;14177;51.520;6.764;2022-11-04T00:47:29;100009.44;;;11.97
69785;BMP280;14177;51.520;6.764;2022-11-04T00:49:58;100006.06;;;11.95
69785;BMP280;14177;51.520;6.764;2022-11-04T00:52:29;100004.94;;;12.01
69785;BMP280;14177;51.520;6.764;2022-11-04T00:55:01;100005.63;;;12.04
69785;BMP280;14177;51.520;6.764;2022-11-04T00:57:33;100033.34;;;12.05
69785;BMP280;14177;51.520;6.764;2022-11-04T01:00:14;100026.75;;;11.98
69785;BMP280;14177;51.520;6.764;2022-11-04T01:02:47;100032.09;;;11.95
69785;BMP280;14177;51.520;6.764;2022-11-04T01:05:28;100028.03;;;11.90
69785;BMP280;14177;51.520;6.764;2022-11-04T01:08:03;100037.81;;;11.85
69785;BMP280;14177;51.520;6.764;2022-11-04T01:10:44;100035.28;;;11.83
69785;BMP280;14177;51.520;6.764;2022-11-04T01:13:20;100016.44;;;11.78
69785;BMP280;14177;51.520;6.764;2022-11-04T01:15:49;100038.31;;;11.74
69785;BMP280;14177;51.520;6.764;2022-11-04T01:18:33;100043.09;;;11.83
69785;BMP280;14177;51.520;6.764;2022-11-04T01:21:06;100051.94;;;11.79
69785;BMP280;14177;51.520;6.764;2022-11-04T01:23:41;100047.03;;;11.73
69785;BMP280;14177;51.520;6.764;2022-11-04T01:26:24;100059.25;;;11.71
69785;BMP280;14177;51.520;6.764;2022-11-04T01:28:57;100060.03;;;11.73
69785;BMP280;14177;51.520;6.764;2022-11-04T01:31:30;100059.97;;;11.75
69785;BMP280;14177;51.520;6.764;2022-11-04T01:34:11;100059.84;;;11.78
69785;BMP280;14177;51.520;6.764;2022-11-04T01:36:43;100076.28;;;11.78
69785;BMP280;14177;51.520;6.764;2022-11-04T01:39:11;100072.75;;;11.79
69785;BMP280;14177;51.520;6.764;2022-11-04T01:41:41;100077.06;;;11.80
69785;BMP280;14177;51.520;6.764;2022-11-04T01:47:54;100091.31;;;11.90
69785;BMP280;14177;51.520;6.764;2022-11-04T01:50:39;100086.13;;;11.90
69785;BMP280;14177;51.520;6.764;2022-11-04T01:53:17;100075.56;;;11.93
69785;BMP280;14177;51.520;6.764;2022-11-04T01:55:54;100087.81;;;11.91
69785;BMP280;14177;51.520;6.764;2022-11-04T01:58:35;100085.50;;;11.85
69785;BMP280;14177;51.520;6.764;2022-11-04T02:01:04;100083.81;;;11.84
69785;BMP280;14177;51.520;6.764;2022-11-04T02:03:37;100085.72;;;11.81
69785;BMP280;14177;51.520;6.764;2022-11-04T02:06:11;100090.97;;;11.79
69785;BMP280;14177;51.520;6.764;2022-11-04T02:08:47;100078.97;;;11.77
69785;BMP280;14177;51.520;6.764;2022-11-04T02:11:26;100084.22;;;11.75
69785;BMP280;14177;51.520;6.764;2022-11-04T02:14:27;100082.81;;;11.68
69785;BMP280;14177;51.520;6.764;2022-11-04T02:20:17;100088.38;;;11.61
69785;BMP280;14177;51.520;6.764;2022-11-04T02:29:29;100083.47;;;11.55
69785;BMP280;14177;51.520;6.764;2022-11-04T02:32:18;100076.53;;;11.54
69785;BMP280;14177;51.520;6.764;2022-11-04T02:40:55;100091.84;;;11.41
69785;BMP280;14177;51.520;6.764;2022-11-04T02:47:02;100098.09;;;11.37
69785;BMP280;14177;51.520;6.764;2022-11-04T02:50:20;100103.63;;;11.30
69785;BMP280;14177;51.520;6.764;2022-11-04T03:11:21;100087.81;;;11.16
69785;BMP280;14177;51.520;6.764;2022-11-04T03:14:09;100087.31;;;11.08
69785;BMP280;14177;51.520;6.764;2022-11-04T03:17:03;100085.81;;;11.02
69785;BMP280;14177;51.520;6.764;2022-11-04T03:19:57;100086.84;;;10.98
69785;BMP280;14177;51.520;6.764;2022-11-04T03:22:29;100086.00;;;10.98
69785;BMP280;14177;51.520;6.764;2022-11-04T03:25:04;100081.78;;;10.95
69785;BMP280;14177;51.520;6.764;2022-11-04T03:28:05;100088.63;;;10.98
69785;BMP280;14177;51.520;6.764;2022-11-04T03:30:46;100088.78;;;10.93
69785;BMP280;14177;51.520;6.764;2022-11-04T03:36:10;100097.56;;;10.91
69785;BMP280;14177;51.520;6.764;2022-11-04T03:38:50;100096.88;;;10.88
69785;BMP280;14177;51.520;6.764;2022-11-04T03:41:41;100104.94;;;10.82
69785;BMP280;14177;51.520;6.764;2022-11-04T03:44:13;100112.06;;;10.77
69785;BMP280;14177;51.520;6.764;2022-11-04T03:46:41;100111.94;;;10.80
69785;BMP280;14177;51.520;6.764;2022-11-04T03:49:12;100104.69;;;10.66
69785;BMP280;14177;51.520;6.764;2022-11-04T03:51:45;100104.56;;;10.69
69785;BMP280;14177;51.520;6.764;2022-11-04T03:54:24;100110.63;;;10.70
69785;BMP280;14177;51.520;6.764;2022-11-04T03:57:07;100103.75;;;10.69
69785;BMP280;14177;51.520;6.764;2022-11-04T04:05:58;100118.28;;;10.53
69785;BMP280;14177;51.520;6.764;2022-11-04T04:08:43;100129.44;;;10.55
69785;BMP280;14177;51.520;6.764;2022-11-04T04:11:41;100131.06;;;10.57
69785;BMP280;14177;51.520;6.764;2022-11-04T04:14:30;100139.28;;;10.47
69785;BMP280;14177;51.520;6.764;2022-11-04T04:17:51;100131.44;;;10.48
69785;BMP280;14177;51.520;6.764;2022-11-04T04:20:25;100133.38;;;10.43
69785;BMP280;14177;51.520;6.764;2022-11-04T04:23:06;100138.56;;;10.43
69785;BMP280;14177;51.520;6.764;2022-11-04T04:25:57;100131.19;;;10.33
69785;BMP280;14177;51.520;6.764;2022-11-04T04:28:46;100137.97;;;10.37
69785;BMP280;14177;51.520;6.764;2022-11-04T04:31:25;100121.69;;;10.33
69785;BMP280;14177;51.520;6.764;2022-11-04T04:34:44;100142.44;;;10.33
69785;BMP280;14177;51.520;6.764;2022-11-04T04:37:22;100152.59;;;10.39
69785;BMP280;14177;51.520;6.764;2022-11-04T04:39:58;100136.47;;;10.31
69785;BMP280;14177;51.520;6.764;2022-11-04T04:42:51;100142.56;;;10.30
69785;BMP280;14177;51.520;6.764;2022-11-04T04:45:52;100152.22;;;10.27
69785;BMP280;14177;51.520;6.764;2022-11-04T04:48:20;100162.72;;;10.24
69785;BMP280;14177;51.520;6.764;2022-11-04T04:50:52;100162.00;;;10.20
69785;BMP280;14177;51.520;6.764;2022-11-04T04:53:24;100168.00;;;10.21
69785;BMP280;14177;51.520;6.764;2022-11-04T04:55:52;100165.69;;;10.15
69785;BMP280;14177;51.520;6.764;2022-11-04T04:58:25;100173.47;;;10.15
69785;BMP280;14177;51.520;6.764;2022-11-04T05:00:54;100170.22;;;10.10
69785;BMP280;14177;51.520;6.764;2022-11-04T05:03:23;100171.91;;;10.11
69785;BMP280;14177;51.520;6.764;2022-11-04T05:05:51;100172.13;;;10.05
69785;BMP280;14177;51.520;6.764;2022-11-04T05:08:23;100175.66;;;10.02
69785;BMP280;14177;51.520;6.764;2022-11-04T05:11:03;100176.66;;;10.00
69785;BMP280;14177;51.520;6.764;2022-11-04T05:13:32;100176.66;;;9.98
69785;BMP280;14177;51.520;6.764;2022-11-04T05:16:10;100185.47;;;9.94
69785;BMP280;14177;51.520;6.764;2022-11-04T05:18:37;100189.69;;;9.97
69785;BMP280;14177;51.520;6.764;2022-11-04T05:21:15;100200.06;;;9.97
69785;BMP280;14177;51.520;6.764;2022-11-04T05:23:48;100198.50;;;9.93
69785;BMP280;14177;51.520;6.764;2022-11-04T05:26:19;100193.47;;;9.88
69785;BMP280;14177;51.520;6.764;2022-11-04T05:28:49;100188.38;;;9.85
69785;BMP280;14177;51.520;6.764;2022-11-04T05:31:24;100195.44;;;9.82
69785;BMP280;14177;51.520;6.764;2022-11-04T05:33:55;100197.81;;;9.88
69785;BMP280;14177;51.520;6.764;2022-11-04T05:36:29;100194.44;;;9.86
69785;BMP280;14177;51.520;6.764;2022-11-04T05:38:58;100204.03;;;9.84
69785;BMP280;14177;51.520;6.764;2022-11-04T05:41:27;100200.72;;;9.80
69785;BMP280;14177;51.520;6.764;2022-11-04T05:44:02;100205.94;;;9.79
69785;BMP280;14177;51.520;6.764;2022-11-04T05:46:32;100207.63;;;9.80
69785;BMP280;14177;51.520;6.764;2022-11-04T05:49:03;100212.00;;;9.79
69785;BMP280;14177;51.520;6.764;2022-11-04T05:51:37;100214.63;;;9.78
69785;BMP280;14177;51.520;6.764;2022-11-04T05:54:09;100214.63;;;9.78
69785;BMP280;14177;51.520;6.764;2022-11-04T05:56:41;100222.47;;;9.76
69785;BMP280;14177;51.520;6.764;2022-11-04T05:59:15;100224.22;;;9.76
69785;BMP280;14177;51.520;6.764;2022-11-04T06:01:48;100226.69;;;9.79
69785;BMP280;14177;51.520;6.764;2022-11-04T06:04:21;100230.06;;;9.81
69785;BMP280;14177;51.520;6.764;2022-11-04T06:06:53;100232.56;;;9.84
69785;BMP280;14177;51.520;6.764;2022-11-04T06:09:28;100229.84;;;9.87
69785;BMP280;14177;51.520;6.764;2022-11-04T06:12:19;100233.25;;;9.89
69785;BMP280;14177;51.520;6.764;2022-11-04T06:14:53;100237.47;;;9.91
69785;BMP280;14177;51.520;6.764;2022-11-04T06:17:24;100238.22;;;9.95
69785;BMP280;14177;51.520;6.764;2022-11-04T06:20:06;100238.09;;;9.98
69785;BMP280;14177;51.520;6.764;2022-11-04T06:22:33;100244.94;;;10.00
69785;BMP280;14177;51.520;6.764;2022-11-04T06:25:01;100240.50;;;10.04
69785;BMP280;14177;51.520;6.764;2022-11-04T06:27:28;100235.19;;;10.07
69785;BMP280;14177;51.520;6.764;2022-11-04T06:29:56;100247.94;;;10.13
69785;BMP280;14177;51.520;6.764;2022-11-04T06:32:29;100249.63;;;10.14
69785;BMP280;14177;51.520;6.764;2022-11-04T06:34:59;100240.84;;;10.18
69785;BMP280;14177;51.520;6.764;2022-11-04T06:37:26;100251.94;;;10.21
69785;BMP280;14177;51.520;6.764;2022-11-04T06:39:53;100257.00;;;10.24
69785;BMP280;14177;51.520;6.764;2022-11-04T06:42:20;100256.91;;;10.27
69785;BMP280;14177;51.520;6.764;2022-11-04T06:44:47;100257.63;;;10.31
69785;BMP280;14177;51.520;6.764;2022-11-04T06:47:14;100246.31;;;10.32
69785;BMP280;14177;51.520;6.764;2022-11-04T06:49:47;100265.19;;;10.37
69785;BMP280;14177;51.520;6.764;2022-11-04T06:52:14;100270.31;;;10.38
69785;BMP280;14177;51.520;6.764;2022-11-04T06:54:41;100271.94;;;10.41
69785;BMP280;14177;51.520;6.764;2022-11-04T06:57:10;100273.59;;;10.43
69785;BMP280;14177;51.520;6.764;2022-11-04T06:59:38;100277.94;;;10.43
69785;BMP280;14177;51.520;6.764;2022-11-04T07:02:13;100281.31;;;10.45
69785;BMP280;14177;51.520;6.764;2022-11-04T07:04:51;100286.41;;;10.48
69785;BMP280;14177;51.520;6.764;2022-11-04T07:07:34;100288.94;;;10.49
69785;BMP280;14177;51.520;6.764;2022-11-04T07:10:23;100292.25;;;10.53
69785;BMP280;14177;51.520;6.764;2022-11-04T07:12:51;100299.84;;;10.57
69785;BMP280;14177;51.520;6.764;2022-11-04T07:15:43;100297.09;;;10.62
69785;BMP280;14177;51.520;6.764;2022-11-04T07:18:41;100295.22;;;10.65
69785;BMP280;14177;51.520;6.764;2022-11-04T07:21:10;100296.88;;;10.68
69785;BMP280;14177;51.520;6.764;2022-11-04T07:23:37;100298.44;;;10.72
69785;BMP280;14177;51.520;6.764;2022-11-04T07:26:07;100299.13;;;10.77
69785;BMP280;14177;51.520;6.764;2022-11-04T07:28:36;100304.00;;;10.84
69785;BMP280;14177;51.520;6.764;2022-11-04T07:31:06;100309.03;;;10.88
69785;BMP280;14177;51.520;6.764;2022-11-04T07:33:34;100305.41;;;10.92
69785;BMP280;14177;51.520;6.764;2022-11-04T07:36:06;100311.31;;;10.96
69785;BMP280;14177;51.520;6.764;2022-11-04T07:38:34;100310.22;;;11.01
69785;BMP280;14177;51.520;6.764;2022-11-04T07:41:01;100310.88;;;11.06
69785;BMP280;14177;51.520;6.764;2022-11-04T07:43:29;100314.13;;;11.11
69785;BMP280;14177;51.520;6.764;2022-11-04T07:46:06;100317.53;;;11.13
69785;BMP280;14177;51.520;6.764;2022-11-04T07:48:35;100316.63;;;11.14
69785;BMP280;14177;51.520;6.764;2022-11-04T07:51:05;100320.13;;;11.13
69785;BMP280;14177;51.520;6.764;2022-11-04T07:53:33;100326.31;;;11.11
69785;BMP280;14177;51.520;6.764;2022-11-04T07:56:09;100329.81;;;11.10
69785;BMP280;14177;51.520;6.764;2022-11-04T07:58:41;100331.63;;;11.08
69785;BMP280;14177;51.520;6.764;2022-11-04T08:01:14;100338.69;;;11.04
69785;BMP280;14177;51.520;6.764;2022-11-04T08:03:42;100341.41;;;11.01
69785;BMP280;14177;51.520;6.764;2022-11-04T08:06:13;100344.91;;;11.00
69785;BMP280;14177;51.520;6.764;2022-11-04T08:08:41;100346.59;;;11.01
69785;BMP280;14177;51.520;6.764;2022-11-04T08:11:23;100351.78;;;11.01
69785;BMP280;14177;51.520;6.764;2022-11-04T08:14:32;100369.09;;;11.02
69785;BMP280;14177;51.520;6.764;2022-11-04T08:16:59;100358.53;;;11.07
69785;BMP280;14177;51.520;6.764;2022-11-04T08:19:26;100363.75;;;11.05
69785;BMP280;14177;51.520;6.764;2022-11-04T08:21:53;100358.69;;;11.02
69785;BMP280;14177;51.520;6.764;2022-11-04T08:24:20;100362.25;;;11.00
69785;BMP280;14177;51.520;6.764;2022-11-04T08:26:47;100370.19;;;10.97
69785;BMP280;14177;51.520;6.764;2022-11-04T08:29:14;100368.41;;;10.97
69785;BMP280;14177;51.520;6.764;2022-11-04T08:31:42;100370.09;;;10.98
69785;BMP280;14177;51.520;6.764;2022-11-04T08:34:09;100370.06;;;11.00
69785;BMP280;14177;51.520;6.764;2022-11-04T08:36:38;100373.56;;;10.99
69785;BMP280;14177;51.520;6.764;2022-11-04T08:39:07;100376.75;;;11.05
69785;BMP280;14177;51.520;6.764;2022-11-04T08:41:41;100377.44;;;11.10
69785;BMP280;14177;51.520;6.764;2022-11-04T08:44:12;100375.75;;;11.09
69785;BMP280;14177;51.520;6.764;2022-11-04T08:46:42;100383.38;;;11.14
69785;BMP280;14177;51.520;6.764;2022-11-04T08:49:10;100384.19;;;11.14
69785;BMP280;14177;51.520;6.764;2022-11-04T08:51:45;100388.09;;;11.26
69785;BMP280;14177;51.520;6.764;2022-11-04T08:54:15;100383.50;;;11.32
69785;BMP280;14177;51.520;6.764;2022-11-04T08:56:42;100388.50;;;11.37
69785;BMP280;14177;51.520;6.764;2022-11-04T08:59:10;100383.81;;;11.45
69785;BMP280;14177;51.520;6.764;2022-11-04T09:01:37;100384.69;;;11.45
69785;BMP280;14177;51.520;6.764;2022-11-04T09:04:05;100390.69;;;11.47
69785;BMP280;14177;51.520;6.764;2022-11-04T09:06:38;100390.81;;;11.44
69785;BMP280;14177;51.520;6.764;2022-11-04T09:09:09;100395.09;;;11.45
69785;BMP280;14177;51.520;6.764;2022-11-04T09:24:17;100404.28;;;11.54
69785;BMP280;14177;51.520;6.764;2022-11-04T09:26:44;100412.16;;;11.52
69785;BMP280;14177;51.520;6.764;2022-11-04T09:29:11;100411.19;;;11.55
69785;BMP280;14177;51.520;6.764;2022-11-04T09:31:39;100413.56;;;11.61
69785;BMP280;14177;51.520;6.764;2022-11-04T09:34:06;100410.00;;;11.63
69785;BMP280;14177;51.520;6.764;2022-11-04T09:36:33;100417.53;;;11.69
69785;BMP280;14177;51.520;6.764;2022-11-04T09:39:01;100420.13;;;11.69
69785;BMP280;14177;51.520;6.764;2022-11-04T09:45:24;100416.97;;;11.83
69785;BMP280;14177;51.520;6.764;2022-11-04T09:47:52;100413.78;;;11.96
69785;BMP280;14177;51.520;6.764;2022-11-04T09:50:43;100418.47;;;12.08
69785;BMP280;14177;51.520;6.764;2022-11-04T09:55:56;100409.94;;;12.24
69785;BMP280;14177;51.520;6.764;2022-11-04T09:58:24;100404.34;;;12.33
69785;BMP280;14177;51.520;6.764;2022-11-04T10:01:25;100407.38;;;12.43
69785;BMP280;14177;51.520;6.764;2022-11-04T10:12:23;100429.94;;;13.01
69785;BMP280;14177;51.520;6.764;2022-11-04T10:15:27;100425.38;;;13.06
69785;BMP280;14177;51.520;6.764;2022-11-04T10:23:39;100421.53;;;13.66
69785;BMP280;14177;51.520;6.764;2022-11-04T10:26:17;100416.91;;;13.88
69785;BMP280;14177;51.520;6.764;2022-11-04T10:29:35;100415.47;;;14.00
69785;BMP280;14177;51.520;6.764;2022-11-04T10:31:45;100421.47;;;14.02
69785;BMP280;14177;51.520;6.764;2022-11-04T10:34:36;100417.69;;;14.07
69785;BMP280;14177;51.520;6.764;2022-11-04T10:37:11;100423.22;;;14.01
69785;BMP280;14177;51.520;6.764;2022-11-04T10:39:44;100438.38;;;13.95
69785;BMP280;14177;51.520;6.764;2022-11-04T10:42:19;100440.75;;;13.82
69785;BMP280;14177;51.520;6.764;2022-11-04T10:44:50;100438.75;;;13.70
69785;BMP280;14177;51.520;6.764;2022-11-04T10:47:32;100438.16;;;13.64
69785;BMP280;14177;51.520;6.764;2022-11-04T10:53:23;100430.00;;;13.53
69785;BMP280;14177;51.520;6.764;2022-11-04T10:56:16;100444.84;;;13.52
69785;BMP280;14177;51.520;6.764;2022-11-04T10:58:47;100449.03;;;13.55
69785;BMP280;14177;51.520;6.764;2022-11-04T11:01:33;100453.28;;;13.57
69785;BMP280;14177;51.520;6.764;2022-11-04T11:04:05;100453.97;;;13.61
69785;BMP280;14177;51.520;6.764;2022-11-04T11:06:35;100453.91;;;13.62
69785;BMP280;14177;51.520;6.764;2022-11-04T11:09:31;100451.47;;;13.59
69785;BMP280;14177;51.520;6.764;2022-11-04T11:18:14;100461.22;;;13.37
69785;BMP280;14177;51.520;6.764;2022-11-04T11:21:12;100465.66;;;13.35
69785;BMP280;14177;51.520;6.764;2022-11-04T11:23:48;100469.66;;;13.42
69785;BMP280;14177;51.520;6.764;2022-11-04T11:26:20;100471.38;;;13.43
69785;BMP280;14177;51.520;6.764;2022-11-04T11:28:56;100474.84;;;13.44
69785;BMP280;14177;51.520;6.764;2022-11-04T11:31:37;100472.13;;;13.45
69785;BMP280;14177;51.520;6.764;2022-11-04T11:34:36;100469.97;;;13.36
69785;BMP280;14177;51.520;6.764;2022-11-04T11:37:21;100476.22;;;13.32
69785;BMP280;14177;51.520;6.764;2022-11-04T11:39:49;100481.53;;;13.31
69785;BMP280;14177;51.520;6.764;2022-11-04T11:42:17;100485.06;;;13.30
69785;BMP280;14177;51.520;6.764;2022-11-04T11:44:54;100484.34;;;13.27
69785;BMP280;14177;51.520;6.764;2022-11-04T11:50:17;100495.41;;;13.32
69785;BMP280;14177;51.520;6.764;2022-11-04T11:52:47;100485.88;;;13.31
69785;BMP280;14177;51.520;6.764;2022-11-04T11:55:29;100491.06;;;13.32
69785;BMP280;14177;51.520;6.764;2022-11-04T11:58:12;100486.75;;;13.31
69785;BMP280;14177;51.520;6.764;2022-11-04T12:01:34;100487.66;;;13.30
69785;BMP280;14177;51.520;6.764;2022-11-04T12:04:03;100479.56;;;13.36
69785;BMP280;14177;51.520;6.764;2022-11-04T12:07:24;100485.28;;;13.44
69785;BMP280;14177;51.520;6.764;2022-11-04T12:11:26;100485.72;;;13.52
69785;BMP280;14177;51.520;6.764;2022-11-04T12:13:48;100493.34;;;13.56
69785;BMP280;14177;51.520;6.764;2022-11-04T12:19:53;100497.31;;;13.46
69785;BMP280;14177;51.520;6.764;2022-11-04T12:22:49;100501.91;;;13.41
69785;BMP280;14177;51.520;6.764;2022-11-04T12:25:33;100492.38;;;13.40
69785;BMP280;14177;51.520;6.764;2022-11-04T12:31:28;100495.97;;;13.56
69785;BMP280;14177;51.520;6.764;2022-11-04T12:37:14;100511.69;;;13.73
69785;BMP280;14177;51.520;6.764;2022-11-04T13:02:38;100499.63;;;13.88
69785;BMP280;14177;51.520;6.764;2022-11-04T13:11:22;100509.94;;;13.91
69785;BMP280;14177;51.520;6.764;2022-11-04T13:14:42;100520.31;;;14.09
69785;BMP280;14177;51.520;6.764;2022-11-04T13:17:15;100514.88;;;15.14
69785;BMP280;14177;51.520;6.764;2022-11-04T13:20:05;100502.59;;;15.47
69785;BMP280;14177;51.520;6.764;2022-11-04T13:22:53;100508.22;;;15.24
69785;BMP280;14177;51.520;6.764;2022-11-04T13:25:51;100515.34;;;15.05
69785;BMP280;14177;51.520;6.764;2022-11-04T13:28:30;100532.53;;;14.93
69785;BMP280;14177;51.520;6.764;2022-11-04T13:31:29;100535.88;;;14.80
69785;BMP280;14177;51.520;6.764;2022-11-04T13:37:30;100531.88;;;16.44
69785;BMP280;14177;51.520;6.764;2022-11-04T13:40:29;100532.91;;;17.13
69785;BMP280;14177;51.520;6.764;2022-11-04T13:43:35;100531.56;;;17.62
69785;BMP280;14177;51.520;6.764;2022-11-04T13:46:35;100533.41;;;18.00
69785;BMP280;14177;51.520;6.764;2022-11-04T13:49:27;100530.78;;;18.27
69785;BMP280;14177;51.520;6.764;2022-11-04T13:57:30;100536.03;;;18.27
69785;BMP280;14177;51.520;6.764;2022-11-04T14:00:33;100534.03;;;18.18
69785;BMP280;14177;51.520;6.764;2022-11-04T14:04:24;100550.53;;;18.46
69785;BMP280;14177;51.520;6.764;2022-11-04T14:07:23;100552.97;;;18.61
69785;BMP280;14177;51.520;6.764;2022-11-04T14:13:42;100556.00;;;18.17
69785;BMP280;14177;51.520;6.764;2022-11-04T14:16:41;100571.16;;;18.26
69785;BMP280;14177;51.520;6.764;2022-11-04T14:19:56;100572.47;;;17.92
69785;BMP280;14177;51.520;6.764;2022-11-04T14:25:40;100578.81;;;17.06
69785;BMP280;14177;51.520;6.764;2022-11-04T14:28:27;100587.47;;;17.22
69785;BMP280;14177;51.520;6.764;2022-11-04T14:33:53;100596.19;;;17.64
69785;BMP280;14177;51.520;6.764;2022-11-04T14:36:38;100602.25;;;17.79
69785;BMP280;14177;51.520;6.764;2022-11-04T14:53:44;100618.63;;;16.24
69785;BMP280;14177;51.520;6.764;2022-11-04T14:56:25;100626.94;;;15.86
69785;BMP280;14177;51.520;6.764;2022-11-04T14:59:25;100633.31;;;15.50
69785;BMP280;14177;51.520;6.764;2022-11-04T15:02:21;100642.81;;;15.18
69785;BMP280;14177;51.520;6.764;2022-11-04T15:05:05;100650.91;;;14.97
69785;BMP280;14177;51.520;6.764;2022-11-04T15:11:28;100659.38;;;14.68
69785;BMP280;14177;51.520;6.764;2022-11-04T15:14:28;100666.88;;;14.57
69785;BMP280;14177;51.520;6.764;2022-11-04T15:17:18;100675.97;;;14.50
69785;BMP280;14177;51.520;6.764;2022-11-04T15:20:01;100683.25;;;14.44
69785;BMP280;14177;51.520;6.764;2022-11-04T15:22:44;100686.38;;;14.33
69785;BMP280;14177;51.520;6.764;2022-11-04T15:25:33;100699.78;;;14.26
69785;BMP280;14177;51.520;6.764;2022-11-04T15:28:25;100699.22;;;14.19
69785;BMP280;14177;51.520;6.764;2022-11-04T15:40:23;100705.81;;;13.89
69785;BMP280;14177;51.520;6.764;2022-11-04T15:42:53;100706.19;;;13.82
69785;BMP280;14177;51.520;6.764;2022-11-04T15:47:48;100714.69;;;13.67
69785;BMP280;14177;51.520;6.764;2022-11-04T15:50:37;100716.88;;;13.57
69785;BMP280;14177;51.520;6.764;2022-11-04T15:53:08;100728.50;;;13.50
69785;BMP280;14177;51.520;6.764;2022-11-04T15:55:47;100727.16;;;13.42
69785;BMP280;14177;51.520;6.764;2022-11-04T15:58:31;100727.47;;;13.34
69785;BMP280;14177;51.520;6.764;2022-11-04T16:01:13;100725.31;;;13.24
69785;BMP280;14177;51.520;6.764;2022-11-04T16:04:09;100726.53;;;13.16
69785;BMP280;14177;51.520;6.764;2022-11-04T16:06:41;100728.50;;;13.11
69785;BMP280;14177;51.520;6.764;2022-11-04T16:11:37;100740.16;;;13.02
69785;BMP280;14177;51.520;6.764;2022-11-04T16:14:21;100745.69;;;12.95
69785;BMP280;14177;51.520;6.764;2022-11-04T16:16:51;100743.31;;;12.89
69785;BMP280;14177;51.520;6.764;2022-11-04T16:19:23;100749.56;;;12.85
69785;BMP280;14177;51.520;6.764;2022-11-04T16:22:07;100748.88;;;12.80
69785;BMP280;14177;51.520;6.764;2022-11-04T16:24:39;100760.47;;;12.73
69785;BMP280;14177;51.520;6.764;2022-11-04T16:27:12;100765.00;;;12.68
69785;BMP280;14177;51.520;6.764;2022-11-04T16:29:41;100761.75;;;12.63
69785;BMP280;14177;51.520;6.764;2022-11-04T16:32:43;100756.75;;;12.57
69785;BMP280;14177;51.520;6.764;2022-11-04T16:35:22;100764.03;;;12.49
69785;BMP280;14177;51.520;6.764;2022-11-04T16:37:52;100774.69;;;12.43
69785;BMP280;14177;51.520;6.764;2022-11-04T16:40:21;100781.84;;;12.38
69785;BMP280;14177;51.520;6.764;2022-11-04T16:42:49;100789.78;;;12.35
69785;BMP280;14177;51.520;6.764;2022-11-04T16:45:23;100790.91;;;12.28
69785;BMP280;14177;51.520;6.764;2022-11-04T16:47:51;100785.94;;;12.22
69785;BMP280;14177;51.520;6.764;2022-11-04T16:50:19;100800.78;;;12.20
69785;BMP280;14177;51.520;6.764;2022-11-04T16:52:47;100804.44;;;12.14
69785;BMP280;14177;51.520;6.764;2022-11-04T16:55:14;100809.75;;;12.11
69785;BMP280;14177;51.520;6.764;2022-11-04T16:57:42;100806.56;;;12.04
69785;BMP280;14177;51.520;6.764;2022-11-04T17:00:22;100818.97;;;11.97
69785;BMP280;14177;51.520;6.764;2022-11-04T17:02:50;100811.44;;;11.90
69785;BMP280;14177;51.520;6.764;2022-11-04T17:05:19;100817.66;;;11.86
69785;BMP280;14177;51.520;6.764;2022-11-04T17:07:46;100824.72;;;11.82
69785;BMP280;14177;51.520;6.764;2022-11-04T17:10:26;100825.72;;;11.78
69785;BMP280;14177;51.520;6.764;2022-11-04T17:12:57;100831.09;;;11.74
69785;BMP280;14177;51.520;6.764;2022-11-04T17:15:39;100836.56;;;11.66
69785;BMP280;14177;51.520;6.764;2022-11-04T17:18:08;100830.69;;;11.61
69785;BMP280;14177;51.520;6.764;2022-11-04T17:20:42;100817.88;;;11.55
69785;BMP280;14177;51.520;6.764;2022-11-04T17:23:25;100829.19;;;11.53
69785;BMP280;14177;51.520;6.764;2022-11-04T17:25:54;100828.38;;;11.52
69785;BMP280;14177;51.520;6.764;2022-11-04T17:28:38;100837.16;;;11.48
69785;BMP280;14177;51.520;6.764;2022-11-04T17:31:19;100839.06;;;11.43
69785;BMP280;14177;51.520;6.764;2022-11-04T17:44:42;100871.38;;;11.36
69785;BMP280;14177;51.520;6.764;2022-11-04T17:47:09;100864.63;;;11.31
69785;BMP280;14177;51.520;6.764;2022-11-04T17:49:37;100866.47;;;11.27
69785;BMP280;14177;51.520;6.764;2022-11-04T17:52:04;100879.66;;;11.21
69785;BMP280;14177;51.520;6.764;2022-11-04T17:54:31;100878.97;;;11.16
69785;BMP280;14177;51.520;6.764;2022-11-04T17:56:59;100892.88;;;11.15
69785;BMP280;14177;51.520;6.764;2022-11-04T17:59:26;100895.56;;;11.12
69785;BMP280;14177;51.520;6.764;2022-11-04T18:02:01;100893.03;;;11.11
69785;BMP280;14177;51.520;6.764;2022-11-04T18:04:30;100899.06;;;11.11
69785;BMP280;14177;51.520;6.764;2022-11-04T18:06:57;100900.03;;;11.09
69785;BMP280;14177;51.520;6.764;2022-11-04T18:09:30;100911.25;;;11.09
69785;BMP280;14177;51.520;6.764;2022-11-04T18:11:59;100908.66;;;11.09
69785;BMP280;14177;51.520;6.764;2022-11-04T18:14:45;100916.53;;;11.06